Time;durP1;ratioP1;P1;durP2;ratioP2;P2;SDS_P1;SDS_P2;PMS_P1;PMS_P2;Temp;Humidity;BMP_temperature;BMP_pressure;BME280_temperature;BME280_humidity;BME280_pressure;Samples;Min_cycle;Max_cycle;Signal;HPM_P1;HPM_P2
2023/03/01 00:01:42;;;;;;;6.50;2.42;;;32.40;99.90;;;;;;5051100;28;20206;-73
2023/03/01 00:04:10;;;;;;;5.07;2.60;;;32.00;99.90;;;;;;5051895;28;20183;-72
2023/03/01 00:06:38;;;;;;;8.00;2.35;;;32.00;99.90;;;;;;5048666;28;20184;-72
2023/03/01 00:09:06;;;;;;;5.38;2.58;;;31.60;99.90;;;;;;5050747;28;20552;-75
2023/03/01 00:11:34;;;;;;;6.38;2.13;;;31.80;99.90;;;;;;5051334;28;20185;-73
2023/03/01 00:14:07;;;;;;;6.28;1.92;;;31.90;97.10;;;;;;5051749;28;20267;-74
2023/03/01 00:16:40;;;;;;;5.65;2.00;;;31.70;96.80;;;;;;5061852;28;20709;-74
2023/03/01 00:19:14;;;;;;;7.40;1.83;;;31.60;92.70;;;;;;5063784;28;20208;-73
2023/03/01 00:21:42;;;;;;;3.63;1.75;;;31.20;86.90;;;;;;5051461;28;20181;-73
2023/03/01 00:24:10;;;;;;;3.58;1.55;;;31.20;85.90;;;;;;5051691;28;20265;-74
2023/03/01 00:26:39;;;;;;;6.47;2.10;;;31.30;86.80;;;;;;5047177;28;20559;-73
2023/03/01 00:29:07;;;;;;;5.07;1.80;;;31.20;83.40;;;;;;5049578;28;20199;-73
2023/03/01 00:31:35;;;;;;;2.65;1.50;;;31.60;85.90;;;;;;5051690;28;20185;-71
2023/03/01 00:34:05;;;;;;;7.38;2.15;;;31.90;79.10;;;;;;5050454;28;20180;-72
2023/03/01 00:36:35;;;;;;;2.33;1.60;;;32.30;71.80;;;;;;5047769;28;20618;-72
2023/03/01 00:39:06;;;;;;;3.20;1.58;;;32.20;83.50;;;;;;5049808;28;20180;-73
2023/03/01 00:41:34;;;;;;;3.90;1.70;;;32.80;77.20;;;;;;5048499;28;20571;-73
2023/03/01 00:44:02;;;;;;;3.25;1.80;;;33.10;79.70;;;;;;5050413;28;20193;-73
2023/03/01 00:46:30;;;;;;;4.80;1.70;;;33.30;77.60;;;;;;5050605;28;20260;-74
2023/03/01 00:48:58;;;;;;;5.45;1.98;;;33.40;67.80;;;;;;5051277;28;20223;-71
2023/03/01 00:51:28;;;;;;;3.55;1.70;;;33.50;65.10;;;;;;5050019;28;20186;-73
2023/03/01 00:54:01;;;;;;;2.85;1.75;;;33.30;70.50;;;;;;5050402;28;20204;-71
2023/03/01 00:56:29;;;;;;;6.20;2.15;;;33.50;68.90;;;;;;5048005;28;20189;-74
2023/03/01 00:58:57;;;;;;;3.97;1.92;;;33.50;68.00;;;;;;5048289;28;20177;-73
2023/03/01 01:01:31;;;;;;;5.00;2.00;;;33.50;63.60;;;;;;5048280;28;20188;-73
2023/03/01 01:07:21;;;;;;;10.05;2.00;;;33.20;64.80;;;;;;5050433;28;20211;-76
2023/03/01 01:09:48;;;;;;;3.75;2.08;;;32.50;69.60;;;;;;5052077;28;20188;-76
2023/03/01 01:12:16;;;;;;;6.57;1.92;;;32.30;70.20;;;;;;5051943;28;20169;-74
2023/03/01 01:14:44;;;;;;;2.15;1.52;;;31.90;69.60;;;;;;5052241;28;20226;-77
2023/03/01 01:17:12;;;;;;;8.98;1.90;;;32.00;73.30;;;;;;5051630;28;20270;-76
2023/03/01 01:19:44;;;;;;;4.32;1.65;;;31.70;65.20;;;;;;5052651;28;20310;-76
2023/03/01 01:22:11;;;;;;;6.03;2.03;;;32.10;63.30;;;;;;5054912;28;20185;-75
2023/03/01 01:24:39;;;;;;;7.20;1.80;;;32.30;59.30;;;;;;5056840;28;20184;-74
2023/03/01 01:27:11;;;;;;;9.10;1.75;;;32.60;57.40;;;;;;5053977;28;20195;-74
2023/03/01 01:29:39;;;;;;;5.70;2.08;;;32.60;54.30;;;;;;5054084;28;20215;-74
2023/03/01 01:32:07;;;;;;;4.07;1.60;;;32.30;59.40;;;;;;5054607;28;20172;-73
2023/03/01 01:34:34;;;;;;;2.90;1.63;;;32.10;62.70;;;;;;5052553;28;20188;-73
2023/03/01 01:37:02;;;;;;;8.82;2.00;;;32.10;59.90;;;;;;5053021;28;20234;-74
2023/03/01 01:39:30;;;;;;;3.72;1.80;;;32.10;58.00;;;;;;5054483;28;20208;-74
2023/03/01 01:41:58;;;;;;;7.22;1.63;;;31.70;56.60;;;;;;5054013;28;20242;-73
2023/03/01 01:44:28;;;;;;;5.70;1.67;;;32.00;59.00;;;;;;5052693;28;20176;-75
2023/03/01 01:46:56;;;;;;;7.72;1.83;;;32.60;55.70;;;;;;5034688;28;20189;-76
2023/03/01 01:49:47;;;;;;;4.13;1.33;;;32.80;55.40;;;;;;5034816;28;20232;-76
2023/03/01 01:52:36;;;;;;;3.67;1.83;;;32.60;53.50;;;;;;5034786;28;20188;-75
2023/03/01 01:55:24;;;;;;;10.10;2.00;;;32.80;52.70;;;;;;5039747;28;20192;-74
2023/03/01 01:58:02;;;;;;;4.97;1.83;;;32.30;53.90;;;;;;5054176;28;20208;-73
2023/03/01 02:00:31;;;;;;;5.32;2.20;;;32.50;55.20;;;;;;5051393;28;21358;-72
2023/03/01 02:03:04;;;;;;;5.85;1.77;;;31.90;57.40;;;;;;5053010;28;20184;-75
2023/03/01 02:05:57;;;;;;;10.07;1.58;;;32.40;56.20;;;;;;5046290;28;20280;-73
2023/03/01 02:08:30;;;;;;;6.65;1.83;;;32.50;54.00;;;;;;5052040;28;20314;-74
2023/03/01 02:11:04;;;;;;;5.30;1.70;;;32.70;56.50;;;;;;5049521;28;20212;-74
2023/03/01 02:13:33;;;;;;;5.50;1.70;;;33.10;54.10;;;;;;5053259;28;20181;-75
2023/03/01 02:16:10;;;;;;;2.95;1.70;;;33.30;56.90;;;;;;5047884;28;20321;-75
2023/03/01 02:18:43;;;;;;;3.80;1.42;;;33.30;59.00;;;;;;5051453;28;20212;-73
2023/03/01 02:21:37;;;;;;;8.85;1.77;;;33.60;55.70;;;;;;5050620;28;20211;-74
2023/03/01 02:24:33;;;;;;;3.75;1.58;;;34.00;56.70;;;;;;5050221;28;20192;-74
2023/03/01 02:27:02;;;;;;;5.68;1.70;;;33.50;52.00;;;;;;5043230;28;20239;-75
2023/03/01 02:29:30;;;;;;;3.05;1.83;;;33.90;56.60;;;;;;5054022;28;20509;-74
2023/03/01 02:32:02;;;;;;;10.32;2.25;;;34.70;58.30;;;;;;5053792;28;20192;-72
2023/03/01 02:34:32;;;;;;;6.63;2.13;;;35.30;61.90;;;;;;5051672;28;20234;-73
2023/03/01 02:37:24;;;;;;;5.75;1.88;;;35.50;57.90;;;;;;5053048;28;20901;-74
2023/03/01 02:40:02;;;;;;;7.70;2.10;;;34.60;54.70;;;;;;5045048;28;20455;-73
2023/03/01 02:42:36;;;;;;;4.40;1.73;;;34.60;57.90;;;;;;5051056;28;20193;-73
2023/03/01 02:45:28;;;;;;;3.70;1.50;;;34.30;56.40;;;;;;5051565;28;20188;-73
2023/03/01 02:47:57;;;;;;;4.68;1.52;;;33.70;59.50;;;;;;5029865;28;20209;-73
2023/03/01 02:50:31;;;;;;;3.38;1.92;;;34.00;60.10;;;;;;5031159;28;20183;-74
2023/03/01 02:53:28;;;;;;;4.22;1.67;;;34.30;67.10;;;;;;5032813;28;20185;-73
2023/03/01 02:55:56;;;;;;;5.18;2.03;;;33.70;64.80;;;;;;5032431;28;20193;-72
2023/03/01 02:58:24;;;;;;;8.00;2.53;;;33.50;65.40;;;;;;5032407;28;20717;-74
2023/03/01 03:00:56;;;;;;;4.95;1.70;;;33.20;73.10;;;;;;5031708;28;20217;-74
2023/03/01 03:03:23;;;;;;;5.70;1.88;;;32.50;77.30;;;;;;5032448;28;20256;-75
2023/03/01 03:05:51;;;;;;;2.70;1.65;;;31.90;74.60;;;;;;5033601;28;20219;-73
2023/03/01 03:08:23;;;;;;;4.80;1.70;;;31.60;72.40;;;;;;5051862;28;20230;-73
2023/03/01 03:10:51;;;;;;;3.78;1.70;;;31.30;75.70;;;;;;5051844;28;20646;-73
2023/03/01 03:13:19;;;;;;;4.47;1.90;;;30.90;85.90;;;;;;5052356;28;20270;-75
2023/03/01 03:15:47;;;;;;;6.45;1.77;;;30.60;94.20;;;;;;5050290;28;20242;-74
2023/03/01 03:18:18;;;;;;;3.97;1.90;;;30.70;98.90;;;;;;5051926;28;20280;-74
2023/03/01 03:20:46;;;;;;;5.17;1.70;;;31.00;94.80;;;;;;5051299;28;20208;-74
2023/03/01 03:23:14;;;;;;;2.83;1.60;;;31.00;94.00;;;;;;5051260;28;20260;-75
2023/03/01 03:25:41;;;;;;;5.47;1.70;;;31.20;96.80;;;;;;5049597;28;20203;-73
2023/03/01 03:28:11;;;;;;;6.70;1.53;;;31.20;96.60;;;;;;5046821;28;20292;-74
2023/03/01 03:30:41;;;;;;;4.30;1.50;;;30.90;97.20;;;;;;5031951;28;20643;-73
2023/03/01 03:33:09;;;;;;;5.10;1.53;;;31.00;99.80;;;;;;5031398;28;20180;-74
2023/03/01 03:35:43;;;;;;;4.35;1.17;;;31.40;97.20;;;;;;5030621;28;20180;-74
2023/03/01 03:38:18;;;;;;;3.60;1.40;;;32.10;99.80;;;;;;5050080;28;20180;-73
2023/03/01 03:40:49;;;;;;;2.90;1.20;;;32.30;96.30;;;;;;5050088;28;21022;-73
2023/03/01 03:43:20;;;;;;;4.25;1.38;;;32.10;96.00;;;;;;5050494;28;20169;-75
2023/03/01 03:45:50;;;;;;;2.88;1.20;;;31.70;94.30;;;;;;5050865;28;20193;-74
2023/03/01 03:48:18;;;;;;;5.50;1.20;;;31.40;98.40;;;;;;5050036;28;20185;-74
2023/03/01 03:50:56;;;;;;;3.15;1.17;;;31.20;99.20;;;;;;5049719;28;20179;-74
2023/03/01 03:53:25;;;;;;;5.15;1.40;;;31.30;99.90;;;;;;5048782;28;20188;-74
2023/03/01 03:55:53;;;;;;;5.00;1.35;;;32.10;99.90;;;;;;5050584;28;20250;-74
2023/03/01 03:58:23;;;;;;;2.63;1.20;;;32.70;96.10;;;;;;5049966;28;20211;-74
2023/03/01 04:00:53;;;;;;;4.18;1.38;;;32.90;91.80;;;;;;5050820;28;20767;-73
2023/03/01 04:03:21;;;;;;;6.75;1.30;;;33.10;86.50;;;;;;5052148;28;20174;-75
2023/03/01 04:05:50;;;;;;;3.25;1.17;;;32.70;99.90;;;;;;5050747;28;20177;-75
2023/03/01 04:08:22;;;;;;;3.15;0.90;;;32.10;99.90;;;;;;5050795;28;20177;-74
2023/03/01 04:10:52;;;;;;;7.93;1.10;;;32.10;99.90;;;;;;5050856;28;20180;-75
2023/03/01 04:13:22;;;;;;;7.50;1.40;;;31.90;99.90;;;;;;5049645;28;20237;-73
2023/03/01 04:15:54;;;;;;;3.53;1.08;;;31.60;99.90;;;;;;5036638;28;20193;-72
2023/03/01 04:18:25;;;;;;;5.87;0.97;;;31.60;99.90;;;;;;5031247;28;20204;-72
2023/03/01 04:20:55;;;;;;;4.00;0.90;;;30.70;99.90;;;;;;5029266;28;20286;-73
2023/03/01 04:23:22;;;;;;;6.27;1.27;;;30.20;99.90;;;;;;5030985;28;20173;-73
2023/03/01 04:25:55;;;;;;;1.73;0.70;;;30.60;99.90;;;;;;5037289;28;20196;-72
2023/03/01 04:28:34;;;;;;;4.60;1.07;;;30.60;99.90;;;;;;5054447;28;20180;-74
2023/03/01 04:31:12;;;;;;;1.13;1.00;;;31.00;99.90;;;;;;5071978;28;20684;-73
2023/03/01 04:33:41;;;;;;;2.20;0.80;;;31.10;99.90;;;;;;5073010;28;20313;-73
2023/03/01 04:36:09;;;;;;;1.70;0.90;;;31.00;99.90;;;;;;5072802;28;20179;-73
2023/03/01 04:38:38;;;;;;;3.53;0.70;;;30.60;99.90;;;;;;5072737;28;20168;-73
2023/03/01 04:41:08;;;;;;;3.70;1.07;;;30.50;99.90;;;;;;5072542;28;20235;-73
2023/03/01 04:43:36;;;;;;;1.27;0.60;;;30.50;99.90;;;;;;5072771;28;20211;-73
2023/03/01 04:46:07;;;;;;;4.43;0.70;;;30.30;99.90;;;;;;5072424;28;20255;-73
2023/03/01 04:48:39;;;;;;;2.37;0.73;;;30.40;99.90;;;;;;5072684;28;20184;-73
2023/03/01 04:51:07;;;;;;;5.87;0.60;;;30.50;99.90;;;;;;5072565;28;20172;-72
2023/03/01 04:53:38;;;;;;;5.53;0.57;;;30.40;99.90;;;;;;5072751;28;20174;-74
2023/03/01 04:56:06;;;;;;;2.23;0.50;;;30.20;99.90;;;;;;5076979;28;20176;-74
2023/03/01 04:58:34;;;;;;;2.33;0.70;;;30.20;99.90;;;;;;5076701;28;20188;-73
2023/03/01 05:01:01;;;;;;;2.40;0.50;;;30.20;99.90;;;;;;5077201;28;20261;-74
2023/03/01 05:03:28;;;;;;;3.50;0.60;;;30.30;99.90;;;;;;5077161;28;20541;-73
2023/03/01 05:05:59;;;;;;;7.03;0.97;;;30.20;99.90;;;;;;5075650;28;20279;-73
2023/03/01 05:08:27;;;;;;;0.77;0.50;;;30.10;99.90;;;;;;5076757;28;20187;-74
2023/03/01 05:10:54;;;;;;;2.30;0.70;;;30.00;99.90;;;;;;5076503;28;20173;-73
2023/03/01 05:13:22;;;;;;;0.87;0.37;;;30.20;99.90;;;;;;5076842;28;20172;-73
2023/03/01 05:15:58;;;;;;;2.60;0.90;;;30.20;99.90;;;;;;5075902;28;20277;-73
2023/03/01 05:18:27;;;;;;;3.63;0.70;;;30.20;99.90;;;;;;5075969;28;20240;-73
2023/03/01 05:20:58;;;;;;;3.83;1.00;;;30.40;99.90;;;;;;5076129;28;20223;-73
2023/03/01 05:23:25;;;;;;;3.87;0.90;;;30.20;99.90;;;;;;5075924;28;20230;-73
2023/03/01 05:25:53;;;;;;;2.53;1.13;;;30.10;99.90;;;;;;5075934;28;20172;-74
2023/03/01 05:28:21;;;;;;;4.27;1.17;;;30.20;99.90;;;;;;5076005;28;20229;-73
2023/03/01 05:30:51;;;;;;;3.07;1.07;;;30.20;99.90;;;;;;5075966;28;20657;-73
2023/03/01 05:33:19;;;;;;;6.93;1.03;;;30.30;99.90;;;;;;5075703;28;20190;-73
2023/03/01 05:35:48;;;;;;;3.67;0.90;;;30.20;99.90;;;;;;5075694;28;20176;-74
2023/03/01 05:38:16;;;;;;;6.17;1.00;;;30.10;99.90;;;;;;5074465;28;20695;-74
2023/03/01 05:40:45;;;;;;;5.53;1.10;;;29.80;99.90;;;;;;5075462;28;20219;-74
2023/03/01 05:43:15;;;;;;;3.83;1.57;;;29.30;99.90;;;;;;5075484;28;20183;-73
2023/03/01 05:45:43;;;;;;;3.27;1.20;;;29.20;99.90;;;;;;5075653;28;20183;-74
2023/03/01 05:48:12;;;;;;;5.23;0.87;;;29.10;99.90;;;;;;5075638;28;20191;-73
2023/03/01 05:50:42;;;;;;;5.00;0.90;;;29.00;99.90;;;;;;5075694;28;20245;-73
2023/03/01 05:53:22;;;;;;;2.87;1.23;;;28.90;99.90;;;;;;5075390;28;20198;-73
2023/03/01 05:55:51;;;;;;;4.93;1.30;;;28.90;99.90;;;;;;5075425;28;20175;-73
2023/03/01 05:58:20;;;;;;;3.53;1.07;;;29.00;99.90;;;;;;5075217;28;20621;-74
2023/03/01 06:00:49;;;;;;;4.40;1.10;;;28.90;99.90;;;;;;5075332;28;20303;-74
2023/03/01 06:03:17;;;;;;;5.20;1.27;;;28.70;99.90;;;;;;5075141;28;20641;-72
2023/03/01 06:05:45;;;;;;;6.80;1.03;;;28.60;99.90;;;;;;5074575;28;20221;-73
2023/03/01 06:08:14;;;;;;;5.37;0.90;;;28.40;99.90;;;;;;5075120;28;20264;-73
2023/03/01 06:10:41;;;;;;;3.23;1.40;;;28.30;99.90;;;;;;5075272;28;20203;-72
2023/03/01 06:13:09;;;;;;;4.77;1.30;;;28.40;99.90;;;;;;5074965;28;20573;-73
2023/03/01 06:15:36;;;;;;;4.90;1.10;;;28.50;99.90;;;;;;5073486;28;20239;-74
2023/03/01 06:18:04;;;;;;;3.97;1.10;;;28.60;99.90;;;;;;5074966;28;20172;-73
2023/03/01 06:20:31;;;;;;;2.97;1.00;;;28.40;99.90;;;;;;5074955;28;20207;-73
2023/03/01 06:22:59;;;;;;;7.50;1.30;;;28.30;99.90;;;;;;5074756;28;20200;-73
2023/03/01 06:25:28;;;;;;;5.53;1.30;;;28.30;99.90;;;;;;5074635;28;20263;-73
2023/03/01 06:27:55;;;;;;;4.73;1.30;;;28.30;99.90;;;;;;5074741;28;20172;-74
2023/03/01 06:30:25;;;;;;;6.57;1.30;;;28.20;99.90;;;;;;5075050;28;20548;-73
2023/03/01 06:32:52;;;;;;;5.20;1.00;;;28.10;99.90;;;;;;5074702;28;20226;-73
2023/03/01 06:35:20;;;;;;;5.13;1.10;;;28.10;99.90;;;;;;5074440;28;20216;-74
2023/03/01 06:37:49;;;;;;;7.30;1.70;;;27.80;99.90;;;;;;5073167;28;20183;-74
2023/03/01 06:40:17;;;;;;;6.60;1.73;;;27.80;99.90;;;;;;5074260;28;20222;-74
2023/03/01 06:42:49;;;;;;;6.13;1.40;;;27.80;99.90;;;;;;5074419;28;20172;-74
2023/03/01 06:45:18;;;;;;;4.20;1.03;;;27.80;99.90;;;;;;5074407;28;20191;-73
2023/03/01 06:47:45;;;;;;;7.30;1.57;;;27.70;99.90;;;;;;5074266;28;20172;-73
2023/03/01 06:50:14;;;;;;;10.40;1.60;;;27.60;99.90;;;;;;5072958;28;20188;-73
2023/03/01 06:52:43;;;;;;;7.57;1.73;;;27.70;99.90;;;;;;5074165;28;20207;-73
2023/03/01 06:55:11;;;;;;;10.67;1.90;;;27.50;99.90;;;;;;5074023;28;20287;-73
2023/03/01 06:57:39;;;;;;;7.87;1.60;;;27.40;99.90;;;;;;5072810;28;20541;-72
2023/03/01 07:00:08;;;;;;;8.90;1.83;;;27.20;99.90;;;;;;5074099;28;20208;-73
2023/03/01 07:02:35;;;;;;;9.03;1.93;;;26.90;99.90;;;;;;5074037;28;20183;-73
2023/03/01 07:05:02;;;;;;;6.90;1.53;;;26.80;99.90;;;;;;5073818;28;20220;-72
2023/03/01 07:07:30;;;;;;;9.60;1.63;;;26.60;99.90;;;;;;5073754;28;20267;-72
2023/03/01 07:09:57;;;;;;;8.27;1.83;;;26.40;99.90;;;;;;5073811;28;20206;-72
2023/03/01 07:12:25;;;;;;;8.50;2.10;;;26.20;99.90;;;;;;5073828;28;20648;-72
2023/03/01 07:14:52;;;;;;;10.40;2.03;;;26.20;99.90;;;;;;5073616;28;20168;-71
2023/03/01 07:17:19;;;;;;;7.27;1.53;;;26.00;99.90;;;;;;5072885;28;20227;-75
2023/03/01 07:19:47;;;;;;;7.43;1.60;;;25.70;99.90;;;;;;5073701;28;20198;-73
2023/03/01 07:22:14;;;;;;;10.73;2.20;;;25.60;99.90;;;;;;5073595;28;20180;-73
2023/03/01 07:24:43;;;;;;;10.87;2.20;;;25.40;99.90;;;;;;5073468;28;20180;-72
2023/03/01 07:27:11;;;;;;;9.90;1.90;;;25.40;99.90;;;;;;5073260;28;20179;-72
2023/03/01 07:29:39;;;;;;;7.37;1.70;;;25.20;99.90;;;;;;5073407;28;20180;-71
2023/03/01 07:32:07;;;;;;;11.97;2.27;;;25.20;99.90;;;;;;5073404;28;20233;-73
2023/03/01 07:34:35;;;;;;;9.87;1.60;;;25.10;99.90;;;;;;5072046;28;20180;-73
2023/03/01 07:37:02;;;;;;;11.33;2.23;;;25.00;99.90;;;;;;5073638;28;20531;-73
2023/03/01 07:39:30;;;;;;;7.33;1.97;;;25.20;99.90;;;;;;5073169;28;20196;-73
2023/03/01 07:41:57;;;;;;;10.23;2.30;;;25.20;99.90;;;;;;5073325;28;20189;-73
2023/03/01 07:44:25;;;;;;;9.43;1.93;;;25.20;99.90;;;;;;5073316;28;20192;-73
2023/03/01 07:46:56;;;;;;;9.90;1.87;;;25.20;99.90;;;;;;5073200;28;20172;-73
2023/03/01 07:49:23;;;;;;;9.13;2.00;;;25.10;99.90;;;;;;5073104;28;20180;-73
2023/03/01 07:51:51;;;;;;;9.30;1.83;;;25.10;99.90;;;;;;5073148;28;20514;-73
2023/03/01 07:54:18;;;;;;;7.83;2.10;;;25.10;99.90;;;;;;5073065;28;20179;-73
2023/03/01 07:56:45;;;;;;;11.37;2.53;;;25.00;99.90;;;;;;5073159;28;20164;-74
2023/03/01 07:59:13;;;;;;;7.77;2.20;;;25.10;99.90;;;;;;5073026;28;20720;-73
2023/03/01 08:01:40;;;;;;;9.40;1.57;;;25.00;99.90;;;;;;5073371;28;20194;-73
2023/03/01 08:04:09;;;;;;;9.60;2.07;;;24.90;99.90;;;;;;5072828;28;20656;-73
2023/03/01 08:06:37;;;;;;;7.57;1.70;;;24.70;99.90;;;;;;5072864;28;20183;-73
2023/03/01 08:09:04;;;;;;;7.73;2.10;;;24.60;99.90;;;;;;5071662;28;20179;-74
2023/03/01 08:11:32;;;;;;;11.17;2.17;;;24.50;99.90;;;;;;5073230;28;20528;-74
2023/03/01 08:14:00;;;;;;;8.87;2.20;;;24.40;99.90;;;;;;5072870;28;20294;-74
2023/03/01 08:16:27;;;;;;;10.83;2.60;;;24.40;99.90;;;;;;5071384;28;20598;-73
2023/03/01 08:18:56;;;;;;;9.50;2.20;;;24.40;99.90;;;;;;5071698;28;20228;-74
2023/03/01 08:21:23;;;;;;;8.10;1.63;;;24.20;99.90;;;;;;5072935;28;20204;-73
2023/03/01 08:23:51;;;;;;;7.97;1.90;;;24.20;99.90;;;;;;5072704;28;20330;-74
2023/03/01 08:26:21;;;;;;;7.50;2.00;;;24.20;99.90;;;;;;5072570;28;20180;-73
2023/03/01 08:28:50;;;;;;;16.33;2.60;;;24.10;99.90;;;;;;5074745;28;20542;-74
2023/03/01 08:31:20;;;;;;;9.73;2.40;;;24.20;99.90;;;;;;5076841;28;20179;-74
2023/03/01 08:33:54;;;;;;;12.13;2.70;;;24.10;99.90;;;;;;5077081;28;20184;-74
2023/03/01 08:36:28;;;;;;;9.77;2.03;;;24.10;99.90;;;;;;5076804;28;20720;-74
2023/03/01 08:38:56;;;;;;;12.23;2.80;;;24.20;99.90;;;;;;5076698;28;20171;-74
2023/03/01 08:41:23;;;;;;;12.17;2.30;;;24.10;99.90;;;;;;5076659;28;20211;-73
2023/03/01 08:43:52;;;;;;;11.30;2.10;;;24.10;99.90;;;;;;5075569;28;20261;-74
2023/03/01 08:46:20;;;;;;;11.23;2.33;;;24.10;99.90;;;;;;5076768;28;20207;-74
2023/03/01 08:48:48;;;;;;;12.57;2.43;;;24.10;99.90;;;;;;5076694;28;20176;-74
2023/03/01 08:51:20;;;;;;;9.43;2.10;;;24.10;99.90;;;;;;5076440;28;20532;-74
2023/03/01 08:53:49;;;;;;;10.80;2.43;;;24.10;99.90;;;;;;5075151;28;20226;-74
2023/03/01 08:56:18;;;;;;;5.93;1.93;;;23.90;99.90;;;;;;5076326;28;20229;-74
2023/03/01 08:58:47;;;;;;;14.00;2.83;;;23.90;99.90;;;;;;5076725;28;20180;-73
2023/03/01 09:01:17;;;;;;;12.27;2.57;;;23.80;99.90;;;;;;5075069;28;20215;-73
2023/03/01 09:03:46;;;;;;;7.37;1.93;;;23.90;99.90;;;;;;5076342;28;20207;-73
2023/03/01 09:06:14;;;;;;;10.07;2.30;;;23.90;99.90;;;;;;5074794;28;20604;-73
2023/03/01 09:08:46;;;;;;;14.77;2.50;;;24.10;99.90;;;;;;5076123;28;20172;-73
2023/03/01 09:11:17;;;;;;;11.43;2.30;;;23.90;99.90;;;;;;5076248;28;20200;-73
2023/03/01 09:13:46;;;;;;;13.13;3.20;;;24.00;99.90;;;;;;5076250;28;20179;-73
2023/03/01 09:16:16;;;;;;;17.07;3.97;;;23.90;99.90;;;;;;5075611;28;20212;-74
2023/03/01 09:18:44;;;;;;;12.67;2.60;;;23.80;99.90;;;;;;5076000;28;20194;-73
2023/03/01 09:21:14;;;;;;;7.37;2.13;;;23.80;99.90;;;;;;5075773;28;20218;-73
2023/03/01 09:23:46;;;;;;;7.23;2.07;;;23.80;99.90;;;;;;5076072;28;20625;-74
2023/03/01 09:26:24;;;;;;;12.30;2.93;;;23.80;99.90;;;;;;5075613;28;20278;-72
2023/03/01 09:28:54;;;;;;;15.13;3.43;;;23.80;99.90;;;;;;5075952;28;20197;-72
2023/03/01 09:31:23;;;;;;;13.63;2.53;;;23.90;99.90;;;;;;5074598;28;20184;-73
2023/03/01 09:33:54;;;;;;;13.50;2.73;;;23.90;99.90;;;;;;5075822;28;20168;-73
2023/03/01 09:36:25;;;;;;;14.03;3.03;;;23.90;99.90;;;;;;5074564;28;20191;-72
2023/03/01 09:38:53;;;;;;;11.43;2.30;;;24.00;99.90;;;;;;5074644;28;20265;-72
2023/03/01 09:41:41;;;;;;;13.00;2.87;;;23.90;99.90;;;;;;5073472;28;20317;-73
2023/03/01 09:44:15;;;;;;;12.67;2.77;;;23.80;99.90;;;;;;5075700;28;20194;-72
2023/03/01 09:46:45;;;;;;;17.73;3.53;;;23.70;99.90;;;;;;5075574;28;20175;-73
2023/03/01 09:49:20;;;;;;;11.33;2.67;;;23.60;99.90;;;;;;5075783;28;20175;-73
2023/03/01 09:52:19;;;;;;;14.43;2.50;;;23.70;99.90;;;;;;5075497;28;20264;-73
2023/03/01 09:54:47;;;;;;;10.87;2.77;;;23.60;99.90;;;;;;5075545;28;20180;-73
2023/03/01 09:57:33;;;;;;;13.47;2.00;;;23.60;99.90;;;;;;5074291;28;20606;-73
2023/03/01 10:00:18;;;;;;;6.50;2.23;;;23.60;99.90;;;;;;5075335;28;20231;-72
2023/03/01 10:02:59;;;;;;;12.83;2.53;;;23.50;99.90;;;;;;5074101;28;20582;-72
2023/03/01 10:05:36;;;;;;;15.37;3.03;;;23.50;99.90;;;;;;5075116;28;20186;-72
2023/03/01 10:08:18;;;;;;;8.17;2.53;;;23.50;99.90;;;;;;5075002;28;20183;-73
2023/03/01 10:10:49;;;;;;;12.90;2.43;;;23.50;99.90;;;;;;5074409;28;20612;-73
2023/03/01 10:13:32;;;;;;;13.97;2.47;;;23.40;99.90;;;;;;5073757;28;20191;-73
2023/03/01 10:16:30;;;;;;;12.93;2.53;;;23.40;99.90;;;;;;5074987;28;20223;-74
2023/03/01 10:19:03;;;;;;;17.17;2.87;;;23.30;99.90;;;;;;5066343;28;20591;-74
2023/03/01 10:21:31;;;;;;;9.23;2.27;;;23.30;99.90;;;;;;5075059;28;20210;-73
2023/03/01 10:24:12;;;;;;;8.03;2.70;;;23.30;99.90;;;;;;5074900;28;20266;-73
2023/03/01 10:26:42;;;;;;;11.33;2.47;;;23.20;99.90;;;;;;5073639;28;20183;-73
2023/03/01 10:29:12;;;;;;;13.77;2.93;;;23.30;99.90;;;;;;5074776;28;20175;-73
2023/03/01 10:31:53;;;;;;;7.30;2.23;;;23.30;99.90;;;;;;5074839;28;20186;-72
2023/03/01 10:34:30;;;;;;;11.47;3.10;;;23.20;99.90;;;;;;5074680;28;20217;-72
2023/03/01 10:37:21;;;;;;;10.83;2.37;;;23.30;99.90;;;;;;5074535;28;20179;-73
2023/03/01 10:40:08;;;;;;;15.00;2.80;;;23.30;99.90;;;;;;5074473;28;20226;-72
2023/03/01 10:42:40;;;;;;;8.83;2.30;;;23.30;99.90;;;;;;5073339;28;20241;-72
2023/03/01 10:45:31;;;;;;;11.27;2.63;;;23.20;99.90;;;;;;5073193;28;20599;-71
2023/03/01 10:48:15;;;;;;;10.67;2.53;;;23.20;99.90;;;;;;5074539;28;20190;-72
2023/03/01 10:50:59;;;;;;;13.87;2.93;;;23.20;99.90;;;;;;5074779;28;20195;-73
2023/03/01 10:53:35;;;;;;;11.00;2.20;;;23.10;99.90;;;;;;5072942;28;20180;-72
2023/03/01 10:56:06;;;;;;;12.27;2.97;;;23.20;99.90;;;;;;5074367;28;20260;-74
2023/03/01 10:58:37;;;;;;;9.00;3.03;;;23.10;99.90;;;;;;5074805;28;20176;-72
2023/03/01 11:01:26;;;;;;;10.97;3.00;;;23.10;99.90;;;;;;5074325;28;20214;-73
2023/03/01 11:04:08;;;;;;;14.57;3.00;;;23.10;99.90;;;;;;5074089;28;20266;-72
2023/03/01 11:06:40;;;;;;;11.47;4.00;;;23.00;99.90;;;;;;5074583;28;20190;-72
2023/03/01 11:09:27;;;;;;;10.57;2.90;;;23.00;99.90;;;;;;5074011;28;20183;-73
2023/03/01 11:11:56;;;;;;;10.63;2.50;;;22.90;99.90;;;;;;5062736;28;20227;-72
2023/03/01 11:14:26;;;;;;;12.57;3.00;;;23.00;99.90;;;;;;5048433;28;20216;-72
2023/03/01 11:17:05;;;;;;;11.80;2.73;;;22.90;99.90;;;;;;5051402;28;20266;-71
2023/03/01 11:19:33;;;;;;;20.73;3.10;;;22.90;99.90;;;;;;5050900;28;20208;-72
2023/03/01 11:22:16;;;;;;;15.20;3.00;;;22.90;99.90;;;;;;5051229;28;20271;-73
2023/03/01 11:24:55;;;;;;;20.60;3.37;;;22.90;99.90;;;;;;5050894;28;20215;-72
2023/03/01 11:27:28;;;;;;;7.43;2.87;;;22.80;99.90;;;;;;5048224;28;20203;-72
2023/03/01 11:30:16;;;;;;;10.33;3.40;;;22.80;99.90;;;;;;5052353;28;20563;-73
2023/03/01 11:32:49;;;;;;;15.23;2.83;;;22.80;99.90;;;;;;5050373;28;20270;-72
2023/03/01 11:35:28;;;;;;;11.83;3.03;;;22.70;99.90;;;;;;5052637;28;20183;-72
2023/03/01 11:38:27;;;;;;;13.70;3.13;;;22.60;99.90;;;;;;5051583;28;20207;-72
2023/03/01 11:41:02;;;;;;;13.87;3.10;;;22.60;99.90;;;;;;5051019;28;21025;-72
2023/03/01 11:43:42;;;;;;;10.70;3.17;;;22.60;99.90;;;;;;5042053;28;20274;-72
2023/03/01 11:46:30;;;;;;;10.97;2.70;;;22.50;99.90;;;;;;5035879;28;20196;-71
2023/03/01 11:49:33;;;;;;;6.23;2.30;;;22.50;99.90;;;;;;5044649;28;20187;-72
2023/03/01 11:52:32;;;;;;;12.03;2.47;;;22.50;99.90;;;;;;5045762;28;20191;-72
2023/03/01 11:55:14;;;;;;;10.67;2.63;;;22.50;99.90;;;;;;5042017;28;20645;-73
2023/03/01 11:58:11;;;;;;;12.43;2.87;;;22.50;99.90;;;;;;5052279;28;20196;-72
2023/03/01 12:00:54;;;;;;;9.30;2.60;;;22.50;99.90;;;;;;5050921;28;20219;-70
2023/03/01 12:03:31;;;;;;;10.20;2.30;;;22.60;99.90;;;;;;5051528;28;20211;-73
2023/03/01 12:06:03;;;;;;;9.17;2.20;;;22.50;99.90;;;;;;5051337;28;20187;-72
2023/03/01 12:08:43;;;;;;;11.43;2.50;;;22.50;99.90;;;;;;5050639;28;20192;-71
2023/03/01 12:11:13;;;;;;;11.57;2.53;;;22.50;99.90;;;;;;5040294;28;20262;-72
2023/03/01 12:14:04;;;;;;;11.43;2.47;;;22.40;99.90;;;;;;5051057;28;20194;-73
2023/03/01 12:17:10;;;;;;;8.27;1.93;;;22.30;99.90;;;;;;5051629;28;20774;-72
2023/03/01 12:20:13;;;;;;;7.90;1.93;;;22.30;99.90;;;;;;5043177;28;20250;-72
2023/03/01 12:23:17;;;;;;;8.00;2.00;;;22.30;99.90;;;;;;5048835;28;20192;-73
2023/03/01 12:25:52;;;;;;;10.27;2.83;;;22.30;99.90;;;;;;5047190;28;21767;-71
2023/03/01 12:28:36;;;;;;;10.67;2.30;;;22.30;99.90;;;;;;5047013;28;20219;-73
2023/03/01 12:31:27;;;;;;;9.97;2.40;;;22.30;99.90;;;;;;5050144;28;20223;-72
2023/03/01 12:34:31;;;;;;;7.20;1.70;;;22.30;99.90;;;;;;5049135;28;20181;-73
2023/03/01 12:37:33;;;;;;;13.07;2.67;;;22.30;99.90;;;;;;5052423;28;20176;-73
2023/03/01 12:40:21;;;;;;;9.53;2.40;;;22.20;99.90;;;;;;5049748;28;20681;-72
2023/03/01 12:42:57;;;;;;;9.03;2.03;;;22.10;99.90;;;;;;5045485;28;20644;-72
2023/03/01 12:45:52;;;;;;;13.47;2.40;;;22.00;99.90;;;;;;5049076;28;20549;-72
2023/03/01 12:48:43;;;;;;;9.37;2.50;;;22.00;99.90;;;;;;5050601;28;20204;-72
2023/03/01 12:51:16;;;;;;;9.33;2.10;;;22.00;99.90;;;;;;5032128;28;20211;-71
2023/03/01 12:53:50;;;;;;;12.03;2.53;;;22.00;99.90;;;;;;5034722;28;20625;-71
2023/03/01 12:56:27;;;;;;;6.60;2.13;;;22.00;99.90;;;;;;5049148;28;20249;-71
2023/03/01 12:59:37;;;;;;;11.40;2.17;;;22.00;99.90;;;;;;5050339;28;20195;-72
2023/03/01 13:02:07;;;;;;;9.53;2.07;;;22.00;99.90;;;;;;5041570;28;20223;-72
2023/03/01 13:04:54;;;;;;;11.87;2.33;;;21.90;99.90;;;;;;5049989;28;20551;-72
2023/03/01 13:07:27;;;;;;;10.67;2.13;;;21.80;99.90;;;;;;5050951;28;20191;-72
2023/03/01 13:10:16;;;;;;;12.33;2.70;;;21.80;99.90;;;;;;5050677;28;20268;-72
2023/03/01 13:12:50;;;;;;;6.60;2.03;;;21.80;99.90;;;;;;5049662;28;20187;-72
2023/03/01 13:15:23;;;;;;;7.13;2.50;;;21.80;99.90;;;;;;5062038;28;20642;-72
2023/03/01 13:18:19;;;;;;;7.67;2.43;;;21.80;99.90;;;;;;5053565;28;20278;-71